METAR Data
IDs: Format: Raw Decoded Include TAF

Data at: 0043 UTC 25 Apr 2019

PAHP 242356Z AUTO 12005KT 10SM SCT036 02/M04 A3017 RMK AO2 SLP256 T00171039 10017 21050 51015 FZRANO
PAHP 242056Z AUTO 11009KT 10SM OVC034 M01/M04 A3013 RMK AO2 SLP241 T10111039 51005 FZRANO
PAHP 241956Z AUTO 11009KT 10SM BKN034 M03/M04 A3011 RMK AO2 SLP233 T10281039 FZRANO
PAHP 241932Z AUTO 11009KT 10SM SCT025 M03/M04 A3012 RMK AO2 FZRANO
PAHP 241907Z AUTO 11007KT 10SM BKN027 M03/M04 A3019 RMK AO2 FZRANO
PAHP 241856Z AUTO 12007KT 10SM BKN027 M03/M04 A3020 RMK AO2 PRESRR SLP266 T10331044 FZRANO
PAHP 241756Z AUTO 10007KT 10SM OVC027 M05/M06 A3011 RMK AO2 SLP236 T10501061 11050 21122 50024 FZRANO
PAHP 241656Z AUTO 11008KT 10SM OVC027 M07/M08 A3012 RMK AO2 PRESRR SLP236 T10721078 FZRANO
PAHP 241556Z AUTO 09008KT 10SM OVC025 M08/M09 A3008 RMK AO2 SLP225 T10781089 FZRANO
PAHP 241514Z AUTO 08007KT 10SM BKN025 M09/M10 A3003 RMK AO2 FZRANO
PAHP 241456Z AUTO 07006KT 10SM CLR M09/M10 A3004 RMK AO2 SLP211 T10941100 51024 FZRANO
PAHP 241431Z AUTO 09006KT 3SM BR CLR M11/M12 A3005 RMK AO2 PRESRR FZRANO
PAHP 241415Z AUTO 09007KT 1 1/4SM BR CLR M11/M12 A3001 RMK AO2 FZRANO
PAHP 241356Z AUTO 09005KT 1SM BR CLR M12/M13 A3001 RMK AO2 PRESFR SLP201 T11221133 FZRANO
PAHP 241320Z AUTO 09005KT 1SM BR CLR M12/M13 A3003 RMK AO2 FZRANO
PAHP 241306Z AUTO 09006KT 1 1/2SM BR CLR M12/M13 A3000 RMK AO2 FZRANO
PAHP 241256Z AUTO 09005KT 2 1/2SM BR CLR M12/M13 A3002 RMK AO2 SLP203 T11221133 FZRANO
PAHP 241229Z AUTO 10006KT 2SM BR BKN027 M12/M13 A3000 RMK AO2 FZRANO
PAHP 241156Z AUTO 10006KT 10SM OVC025 M09/M11 A2997 RMK AO2 SLP187 T10891106 11022 21089 50028 FZRANO
PAHP 241056Z AUTO 13007KT 10SM CLR M07/M09 A2999 RMK AO2 SLP195 T10721089 FZRANO
PAHP 240956Z AUTO 13007KT 10SM CLR M08/M10 A2995 RMK AO2 PRESRR SLP181 T10781100 FZRANO
PAHP 240856Z AUTO 13007KT 10SM BKN025 M04/M07 A2989 RMK AO2 PRESFR SLP159 T10391072 400001050 50004 FZRANO
PAHP 240756Z AUTO 12010KT 10SM OVC023 M03/M06 A2991 RMK AO2 SLP166 T10281056 FZRANO
PAHP 240556Z AUTO 16008KT 10SM FEW013 OVC023 M02/M04 A2988 RMK AO2 PRESRR SLP155 60000 T10221044 11006 21022 53023 FZRANO
PAHP 240456Z AUTO 16009KT 10SM BKN023 M02/M04 A2984 RMK AO2 PRESRR SLP143 T10171044 FZRANO
PAHP 240436Z AUTO 16009KT 10SM SCT011 OVC025 M02/M04 A2981 RMK AO2 FZRANO
PAHP 240413Z AUTO 17009KT 10SM BKN011 BKN025 M02/M04 A2980 RMK AO2 FZRANO
PAHP 240356Z AUTO 17008KT 10SM FEW013 BKN025 M01/M04 A2980 RMK AO2 SLP128 T10111039 FZRANO
PAHP 240308Z AUTO 16009KT 10SM FEW010 BKN017 OVC021 M01/M04 A2982 RMK AO2 FZRANO
PAHP 240256Z AUTO 16010KT 10SM BKN010 OVC016 M01/M04 A2981 RMK AO2 SLP132 60000 T10111039 50012 FZRANO
PAHP 240156Z AUTO 11007KT 10SM OVC008 M01/M03 A2983 RMK AO2 UPB28E34SNB18E28 SLP140 P0000 T10061033 FZRANO
PAHP 240121Z AUTO 08007KT 9SM -SN OVC008 M02/M04 A2980 RMK AO2 SNB18 PRESRR P0000 FZRANO
PAHP 240035Z AUTO 10008KT 10SM SCT008 BKN012 M02/M04 A2977 RMK AO2 UPB08E29 P0000 FZRANO
PAHP 240026Z AUTO 10008KT 10SM UP SCT008 M01/M04 A2977 RMK AO2 UPB08 P0000 FZRANO
PAHP 232356Z AUTO 10006KT 10SM BKN010 M01/M04 A2978 RMK AO2 UPB07E55SNE07 CIG 008V012 SLP120 P0000 60000 T10061044 10000 21044 50005 FZRANO
PAHP 232340Z AUTO 10006KT 10SM UP FEW008 00/M04 A2979 RMK AO2 UPB07SNE07 P0000 FZRANO
PAHP 232256Z AUTO 10005KT 3SM -SN SCT008 M01/M03 A2982 RMK AO2 PRESRR SLP135 P0000 T10061033 FZRANO
PAHP 232156Z AUTO 08006KT 6SM -SN BR BKN008 BKN024 M02/M04 A2977 RMK AO2 UPE22B51E55SNB22E51B55 SLP118 P0000 T10221044 FZRANO
PAHP 232056Z AUTO 11005KT 10SM UP SCT008 SCT018 BKN070 M02/M04 A2976 RMK AO2 SLP115 P0000 60000 T10171044 55000 FZRANO
PAHP 232054Z AUTO 11006KT 10SM UP FEW008 SCT018 BKN070 M02/M04 A2976 RMK AO2 P0000 FZRANO
PAHP 232047Z AUTO 11005KT 10SM UP FEW008 BKN018 BKN070 M02/M04 A2976 RMK AO2 P0000 FZRANO
PAHP 231956Z AUTO 08006KT 3SM UP BR BKN006 OVC016 M03/M04 A2976 RMK AO2 SLP116 P0000 T10281039 FZRANO
PAHP 231936Z AUTO 09005KT 2 1/2SM UP BR OVC014 M03/M04 A2975 RMK AO2 VIS 2V3 P0000 FZRANO
PAHP 231928Z AUTO 07006KT 3SM UP BR OVC016 M03/M04 A2974 RMK AO2 P0000 FZRANO
PAHP 231856Z AUTO 07005KT 2 1/2SM UP BR OVC016 M04/M05 A2973 RMK AO2 PRESRR SLP106 P0000 T10391050 FZRANO
PAHP 231756Z AUTO 07007KT 4SM UP BR OVC016 M04/M06 A2969 RMK AO2 PRESRR SLP090 P0000 60000 T10441056 11033 21044 53008 FZRANO
PAHP 231656Z AUTO 04007KT 9SM UP OVC016 M04/M06 A2963 RMK AO2 UPB24 SLP073 P0000 T10391061 FZRANO
PAHP 231556Z AUTO 00000KT 10SM OVC014 M03/M06 A2967 RMK AO2 SLP085 T10331056 FZRANO
PAHP 231456Z AUTO 22005KT 10SM OVC014 M03/M06 A2966 RMK AO2 SLP082 T10331056 51010 FZRANO
PAHP 231356Z AUTO 23006KT 10SM OVC012 M04/M06 A2965 RMK AO2 SLP077 T10391061 FZRANO